createdAt,value
2023-12-22T00:01:25.774Z,1.10
2023-12-22T00:03:54.903Z,2.03
2023-12-22T00:06:22.620Z,1.00
2023-12-22T00:08:50.457Z,1.52
2023-12-22T00:11:18.228Z,1.48
2023-12-22T00:13:45.941Z,1.52
2023-12-22T00:16:13.762Z,1.52
2023-12-22T00:18:41.541Z,1.58
2023-12-22T00:21:13.018Z,1.70
2023-12-22T00:23:40.693Z,1.48
2023-12-22T00:26:08.418Z,1.42
2023-12-22T00:28:36.149Z,1.45
2023-12-22T00:31:03.945Z,1.60
2023-12-22T00:33:31.712Z,1.23
2023-12-22T00:36:00.327Z,1.60
2023-12-22T00:38:29.418Z,1.35
2023-12-22T00:40:57.609Z,1.67
2023-12-22T00:43:25.603Z,1.55
2023-12-22T00:45:53.336Z,1.42
2023-12-22T00:48:21.133Z,1.42
2023-12-22T00:50:48.955Z,1.20
2023-12-22T00:53:16.664Z,1.25
2023-12-22T00:55:45.924Z,1.83
2023-12-22T00:58:13.639Z,1.40
2023-12-22T01:00:41.458Z,1.30
2023-12-22T01:03:09.225Z,1.20
2023-12-22T01:05:37.058Z,1.27
2023-12-22T01:08:05.177Z,1.30
2023-12-22T01:10:33.072Z,1.10
2023-12-22T01:13:02.654Z,1.65
2023-12-22T01:15:30.361Z,1.33
2023-12-22T01:17:58.093Z,1.48
2023-12-22T01:20:25.862Z,1.30
2023-12-22T01:22:53.651Z,1.48
2023-12-22T01:25:21.385Z,1.40
2023-12-22T01:27:50.680Z,1.60
2023-12-22T01:30:19.913Z,1.17
2023-12-22T01:32:47.724Z,1.45
2023-12-22T01:35:15.456Z,1.05
2023-12-22T01:37:43.343Z,1.23
2023-12-22T01:40:11.389Z,1.10
2023-12-22T01:42:40.905Z,1.27
2023-12-22T01:45:09.532Z,1.25
2023-12-22T01:47:38.888Z,1.15
2023-12-22T01:50:07.171Z,1.33
2023-12-22T01:52:34.999Z,1.65
2023-12-22T01:55:03.400Z,1.70
2023-12-22T01:57:31.614Z,1.20
2023-12-22T01:59:59.467Z,1.17
2023-12-22T02:02:27.170Z,1.05
2023-12-22T02:04:56.451Z,1.80
2023-12-22T02:07:24.259Z,1.83
2023-12-22T02:09:51.956Z,1.25
2023-12-22T02:12:18.668Z,1.40
2023-12-22T02:14:46.443Z,1.00
2023-12-22T02:17:18.478Z,1.40
2023-12-22T02:19:48.020Z,1.00
2023-12-22T02:22:17.182Z,1.42
2023-12-22T02:24:46.277Z,1.63
2023-12-22T02:27:19.389Z,1.17
2023-12-22T02:29:50.465Z,1.25
2023-12-22T02:32:22.858Z,1.20
2023-12-22T02:34:52.161Z,1.48
2023-12-22T02:37:22.343Z,1.55
2023-12-22T02:39:51.726Z,1.25
2023-12-22T02:42:19.621Z,1.70
2023-12-22T02:44:47.452Z,1.30
2023-12-22T02:47:15.178Z,1.40
2023-12-22T02:49:42.862Z,1.48
2023-12-22T02:52:10.610Z,1.52
2023-12-22T02:54:41.044Z,1.98
2023-12-22T02:57:10.370Z,1.52
2023-12-22T02:59:39.087Z,1.35
2023-12-22T03:02:06.807Z,1.38
2023-12-22T03:04:34.681Z,1.13
2023-12-22T03:07:02.426Z,1.30
2023-12-22T03:09:30.104Z,1.25
2023-12-22T03:12:02.750Z,0.98
2023-12-22T03:14:34.238Z,0.82
2023-12-22T03:17:02.069Z,1.20
2023-12-22T03:19:29.896Z,1.42
2023-12-22T03:21:57.644Z,1.13
2023-12-22T03:24:28.246Z,1.10
2023-12-22T03:26:57.498Z,1.00
2023-12-22T03:29:25.274Z,1.52
2023-12-22T03:31:54.604Z,1.30
2023-12-22T03:34:22.371Z,1.23
2023-12-22T03:36:50.738Z,1.00
2023-12-22T03:39:18.584Z,1.33
2023-12-22T03:41:46.266Z,0.90
2023-12-22T03:44:13.942Z,1.35
2023-12-22T03:46:41.727Z,1.30
2023-12-22T03:49:10.916Z,1.70
2023-12-22T03:51:42.613Z,1.10
2023-12-22T03:54:11.350Z,1.58
2023-12-22T03:56:39.084Z,1.50
2023-12-22T03:59:06.816Z,1.23
2023-12-22T04:01:34.849Z,1.30
2023-12-22T04:04:02.575Z,1.20
2023-12-22T04:06:31.754Z,1.77
2023-12-22T04:08:59.458Z,1.58
2023-12-22T04:11:27.200Z,1.33
2023-12-22T04:13:55.051Z,1.30
2023-12-22T04:16:22.802Z,1.50
2023-12-22T04:18:50.560Z,1.10
2023-12-22T04:21:18.380Z,1.35
2023-12-22T04:23:47.483Z,1.38
2023-12-22T04:26:15.239Z,1.38
2023-12-22T04:28:42.997Z,1.27
2023-12-22T04:31:10.705Z,1.50
2023-12-22T04:33:38.473Z,1.05
2023-12-22T04:36:06.409Z,1.80
2023-12-22T04:38:34.117Z,1.50
2023-12-22T04:41:03.264Z,1.45
2023-12-22T04:43:31.042Z,1.52
2023-12-22T04:45:58.786Z,1.90
2023-12-22T04:48:26.578Z,1.88
2023-12-22T04:50:54.316Z,1.73
2023-12-22T04:53:22.118Z,1.50
2023-12-22T04:55:49.892Z,1.40
2023-12-22T04:58:19.021Z,2.17
2023-12-22T05:00:46.755Z,1.77
2023-12-22T05:03:14.538Z,1.95
2023-12-22T05:05:42.622Z,1.50
2023-12-22T05:08:10.437Z,1.55
2023-12-22T05:10:38.236Z,1.30
2023-12-22T05:13:05.990Z,1.58
2023-12-22T05:15:35.055Z,1.75
2023-12-22T05:18:02.958Z,1.55
2023-12-22T05:20:30.681Z,1.48
2023-12-22T05:22:59.864Z,1.15
2023-12-22T05:25:27.619Z,1.40
2023-12-22T05:27:55.372Z,1.42
2023-12-22T05:30:23.241Z,1.77
2023-12-22T05:32:52.747Z,1.92
2023-12-22T05:35:20.649Z,1.90
2023-12-22T05:37:49.353Z,1.20
2023-12-22T05:40:18.234Z,2.00
2023-12-22T05:42:46.035Z,1.63
2023-12-22T05:45:15.075Z,2.03
2023-12-22T05:47:43.036Z,2.90
2023-12-22T05:50:13.644Z,1.92
2023-12-22T05:52:41.508Z,1.83
2023-12-22T05:55:09.702Z,1.88
2023-12-22T05:57:37.400Z,1.85
2023-12-22T06:00:08.073Z,1.80
2023-12-22T06:02:35.749Z,1.48
2023-12-22T06:05:03.741Z,1.30
2023-12-22T06:07:33.105Z,1.75
2023-12-22T06:10:00.845Z,1.90
2023-12-22T06:12:28.522Z,1.42
2023-12-22T06:14:56.245Z,1.85
2023-12-22T06:17:23.940Z,1.85
2023-12-22T06:19:51.663Z,1.50
2023-12-22T06:22:19.405Z,1.42
2023-12-22T06:24:48.467Z,1.80
2023-12-22T06:27:16.257Z,2.10
2023-12-22T06:29:43.989Z,1.30
2023-12-22T06:32:11.843Z,2.28
2023-12-22T06:34:39.607Z,1.80
2023-12-22T06:37:08.745Z,1.48
2023-12-22T06:39:36.501Z,1.60
2023-12-22T06:42:11.827Z,1.20
2023-12-22T06:44:39.560Z,1.73
2023-12-22T06:47:07.782Z,1.60
2023-12-22T06:49:35.695Z,1.52
2023-12-22T06:52:03.655Z,1.55
2023-12-22T06:54:31.434Z,1.52
2023-12-22T06:56:59.137Z,2.22
2023-12-22T06:59:29.290Z,1.73
2023-12-22T07:02:05.900Z,1.63
2023-12-22T07:04:41.377Z,1.58
2023-12-22T07:07:09.101Z,1.30
2023-12-22T07:09:36.788Z,1.60
2023-12-22T07:12:05.051Z,1.05
2023-12-22T07:14:35.582Z,0.70
2023-12-22T07:17:04.018Z,1.33
2023-12-22T07:19:31.903Z,1.70
2023-12-22T07:21:59.641Z,1.40
2023-12-22T07:24:27.862Z,1.80
2023-12-22T07:26:55.822Z,1.52
2023-12-22T07:29:24.989Z,1.10
2023-12-22T07:31:54.363Z,1.30
2023-12-22T07:34:23.640Z,1.30
2023-12-22T07:36:59.940Z,1.17
2023-12-22T07:39:33.671Z,1.00
2023-12-22T07:42:01.432Z,1.88
2023-12-22T07:44:29.126Z,1.52
2023-12-22T07:47:03.298Z,1.58
2023-12-22T07:49:32.856Z,1.60
2023-12-22T07:52:02.888Z,1.27
2023-12-22T07:54:31.875Z,1.10
2023-12-22T07:56:59.634Z,1.27
2023-12-22T07:59:31.224Z,1.48
2023-12-22T08:02:01.893Z,1.10
2023-12-22T08:04:29.754Z,1.35
2023-12-22T08:06:57.547Z,1.10
2023-12-22T08:09:25.285Z,1.52
2023-12-22T08:11:54.547Z,1.30
2023-12-22T08:14:22.901Z,1.10
2023-12-22T08:16:50.646Z,1.10
2023-12-22T08:19:20.033Z,1.30
2023-12-22T08:21:49.835Z,1.40
2023-12-22T08:24:22.781Z,1.13
2023-12-22T08:26:51.613Z,1.42
2023-12-22T08:29:20.042Z,1.33
2023-12-22T08:31:48.196Z,1.17
2023-12-22T08:34:16.044Z,1.05
2023-12-22T08:36:45.609Z,1.52
2023-12-22T08:39:13.897Z,1.00
2023-12-22T08:41:41.972Z,1.08
2023-12-22T08:44:10.078Z,0.80
2023-12-22T08:46:37.994Z,1.10
2023-12-22T08:49:05.836Z,1.35
2023-12-22T08:51:33.764Z,1.13
2023-12-22T08:54:02.851Z,1.27
2023-12-22T08:56:30.568Z,0.90
2023-12-22T08:59:00.368Z,0.98
2023-12-22T09:01:28.278Z,1.08
2023-12-22T09:03:56.012Z,0.85
2023-12-22T09:06:24.432Z,0.80
2023-12-22T09:08:52.122Z,0.73
2023-12-22T09:11:21.948Z,0.80
2023-12-22T09:13:49.724Z,1.35
2023-12-22T09:16:22.597Z,0.90
2023-12-22T09:18:51.005Z,0.85
2023-12-22T09:21:19.359Z,0.73
2023-12-22T09:23:47.705Z,1.08
2023-12-22T09:26:15.846Z,1.27
2023-12-22T09:28:45.729Z,1.38
2023-12-22T09:31:13.693Z,1.55
2023-12-22T09:33:42.405Z,1.52
2023-12-22T09:36:10.418Z,2.15
2023-12-22T09:38:38.135Z,2.40
2023-12-22T09:41:06.315Z,2.08
2023-12-22T09:43:37.033Z,1.90
2023-12-22T09:46:06.892Z,1.90
2023-12-22T09:48:36.998Z,2.08
2023-12-22T09:51:05.294Z,1.77
2023-12-22T09:53:33.440Z,2.30
2023-12-22T09:56:01.553Z,2.20
2023-12-22T09:58:29.444Z,1.90
2023-12-22T10:00:57.999Z,1.98
2023-12-22T10:03:28.019Z,1.80
2023-12-22T10:05:55.870Z,1.92
2023-12-22T10:08:24.016Z,1.75
2023-12-22T10:10:53.765Z,1.50
2023-12-22T10:13:21.814Z,1.92
2023-12-22T10:15:50.116Z,1.52
2023-12-22T10:18:18.063Z,2.00
2023-12-22T10:20:47.950Z,2.28
2023-12-22T10:23:15.665Z,1.95
2023-12-22T10:25:44.202Z,1.95
2023-12-22T10:28:12.710Z,1.30
2023-12-22T10:30:40.831Z,1.48
2023-12-22T10:33:08.833Z,1.83
2023-12-22T10:35:36.645Z,1.75
2023-12-22T10:38:06.096Z,1.38
2023-12-22T10:40:34.006Z,2.30
2023-12-22T10:43:02.318Z,1.77
2023-12-22T10:45:32.138Z,1.77
2023-12-22T10:48:00.880Z,1.30
2023-12-22T10:50:30.061Z,1.70
2023-12-22T10:52:57.820Z,1.38
2023-12-22T10:55:26.912Z,1.17
2023-12-22T10:57:55.327Z,1.38
2023-12-22T11:00:23.354Z,1.10
2023-12-22T11:02:51.724Z,1.17
2023-12-22T11:05:20.305Z,1.58
2023-12-22T11:07:51.498Z,1.08
2023-12-22T11:10:21.550Z,1.88
2023-12-22T11:12:51.143Z,0.80
2023-12-22T11:15:20.342Z,1.33
2023-12-22T11:17:48.676Z,0.70
2023-12-22T11:20:16.975Z,1.10
2023-12-22T11:22:45.117Z,1.10
2023-12-22T11:25:15.300Z,1.40
2023-12-22T11:27:45.723Z,0.85
2023-12-22T11:30:16.281Z,0.68
2023-12-22T11:32:46.452Z,0.75
2023-12-22T11:35:15.125Z,1.02
2023-12-22T11:37:44.424Z,1.00
2023-12-22T11:40:12.556Z,1.00
2023-12-22T11:42:45.917Z,1.02
2023-12-22T11:45:17.970Z,1.13
2023-12-22T11:47:46.003Z,0.77
2023-12-22T11:50:14.329Z,0.50
2023-12-22T11:52:42.076Z,0.75
2023-12-22T11:55:09.980Z,0.98
2023-12-22T11:57:38.896Z,0.60
2023-12-22T12:00:12.078Z,0.90
2023-12-22T12:02:42.335Z,0.80
2023-12-22T12:05:10.728Z,0.82
2023-12-22T12:07:39.271Z,0.70
2023-12-22T12:10:07.536Z,0.85
2023-12-22T12:12:35.432Z,0.73
2023-12-22T12:15:09.160Z,0.90
2023-12-22T12:17:41.579Z,0.82
2023-12-22T12:20:10.606Z,0.60
2023-12-22T12:22:40.128Z,0.90
2023-12-22T12:25:21.585Z,0.70
2023-12-22T12:28:03.168Z,1.08
2023-12-22T12:30:33.414Z,0.80
2023-12-22T12:33:08.280Z,1.23
2023-12-22T12:35:39.002Z,0.93
2023-12-22T12:38:08.972Z,1.20
2023-12-22T12:40:38.401Z,0.93
2023-12-22T12:43:06.324Z,1.35
2023-12-22T12:45:34.980Z,0.82
2023-12-22T12:48:08.125Z,1.10
2023-12-22T12:50:37.586Z,1.20
2023-12-22T12:53:08.212Z,0.98
2023-12-22T12:55:36.106Z,1.05
2023-12-22T12:58:03.956Z,0.80
2023-12-22T13:00:32.281Z,1.08
2023-12-22T13:03:04.089Z,1.30
2023-12-22T13:05:33.643Z,1.33
2023-12-22T13:08:11.219Z,0.93
2023-12-22T13:10:39.210Z,1.02
2023-12-22T13:13:07.350Z,0.98
2023-12-22T13:15:35.454Z,1.00
2023-12-22T13:18:03.615Z,1.17
2023-12-22T13:20:31.636Z,0.98
2023-12-22T13:23:00.857Z,1.15
2023-12-22T13:25:28.624Z,0.75
2023-12-22T13:27:57.210Z,1.20
2023-12-22T13:30:34.663Z,0.93
2023-12-22T13:33:02.570Z,0.68
2023-12-22T13:35:30.694Z,0.70
2023-12-22T13:37:58.457Z,0.70
2023-12-22T13:40:27.605Z,0.85
2023-12-22T13:42:56.236Z,0.60
2023-12-22T13:45:24.018Z,0.80
2023-12-22T13:47:52.034Z,0.70
2023-12-22T13:50:20.065Z,0.80
2023-12-22T13:52:50.127Z,0.70
2023-12-22T13:55:18.891Z,1.17
2023-12-22T13:57:48.503Z,0.75
2023-12-22T14:00:29.844Z,0.60
2023-12-22T14:02:57.663Z,1.13
2023-12-22T14:05:25.660Z,0.82
2023-12-22T14:07:54.064Z,0.80
2023-12-22T14:10:22.011Z,1.13
2023-12-22T14:12:51.871Z,1.00
2023-12-22T14:15:19.742Z,0.65
2023-12-22T14:17:47.969Z,0.93
2023-12-22T14:20:15.990Z,0.90
2023-12-22T14:22:43.683Z,0.98
2023-12-22T14:25:11.432Z,1.10
2023-12-22T14:27:39.384Z,1.17
2023-12-22T14:30:09.326Z,0.70
2023-12-22T14:32:37.074Z,1.10
2023-12-22T14:35:06.545Z,1.25
2023-12-22T14:37:35.295Z,1.10
2023-12-22T14:40:03.085Z,0.77
2023-12-22T14:42:30.913Z,0.82
2023-12-22T14:44:58.845Z,1.00
2023-12-22T14:47:28.259Z,0.65
2023-12-22T14:49:56.137Z,0.88
2023-12-22T14:52:24.614Z,0.90
2023-12-22T14:54:52.573Z,0.88
2023-12-22T14:57:20.676Z,0.80
2023-12-22T14:59:48.766Z,0.75
2023-12-22T15:02:16.690Z,0.90
2023-12-22T15:04:45.964Z,0.90
2023-12-22T15:07:16.746Z,0.95
2023-12-22T15:09:44.676Z,0.80
2023-12-22T15:12:12.378Z,0.85
2023-12-22T15:14:45.080Z,0.90
2023-12-22T15:17:12.871Z,1.00
2023-12-22T15:19:42.078Z,0.77
2023-12-22T15:22:11.569Z,1.08
2023-12-22T15:24:41.349Z,0.60
2023-12-22T15:27:09.268Z,0.73
2023-12-22T15:29:37.016Z,0.90
2023-12-22T15:32:04.957Z,0.70
2023-12-22T15:34:32.856Z,0.80
2023-12-22T15:37:00.630Z,1.00
2023-12-22T15:39:30.765Z,1.00
2023-12-22T15:41:58.509Z,0.75
2023-12-22T15:44:26.405Z,0.70
2023-12-22T15:46:54.845Z,0.80
2023-12-22T15:49:22.883Z,0.77
2023-12-22T15:51:51.453Z,0.90
2023-12-22T15:54:20.283Z,1.05
2023-12-22T15:56:49.322Z,1.00
2023-12-22T15:59:17.132Z,0.98
2023-12-22T16:01:45.447Z,1.23
2023-12-22T16:04:13.437Z,1.10
2023-12-22T16:06:41.164Z,0.85
2023-12-22T16:09:08.876Z,1.05
2023-12-22T16:11:36.586Z,0.95
2023-12-22T16:14:05.656Z,0.93
2023-12-22T16:16:33.653Z,1.10
2023-12-22T16:19:01.938Z,0.57
2023-12-22T16:21:30.174Z,1.00
2023-12-22T16:23:57.889Z,0.90
2023-12-22T16:26:25.693Z,1.15
2023-12-22T16:28:53.478Z,0.73
2023-12-22T16:31:25.398Z,0.68
2023-12-22T16:33:53.485Z,0.90
2023-12-22T16:36:21.767Z,0.90
2023-12-22T16:38:49.582Z,0.95
2023-12-22T16:41:17.380Z,0.70
2023-12-22T16:43:45.367Z,0.82
2023-12-22T16:46:13.582Z,1.10
2023-12-22T16:48:42.708Z,0.70
2023-12-22T16:51:10.379Z,0.98
2023-12-22T16:53:38.193Z,0.77
2023-12-22T16:56:06.270Z,0.82
2023-12-22T16:58:34.130Z,0.77
2023-12-22T17:01:21.221Z,1.05
2023-12-22T17:03:52.836Z,0.77
2023-12-22T17:06:21.340Z,0.70
2023-12-22T17:08:49.574Z,0.70
2023-12-22T17:11:17.380Z,0.70
2023-12-22T17:13:45.114Z,0.68
2023-12-22T17:16:14.781Z,0.63
2023-12-22T17:18:42.817Z,0.90
2023-12-22T17:21:13.022Z,0.85
2023-12-22T17:23:40.756Z,0.88
2023-12-22T17:26:11.421Z,0.80
2023-12-22T17:28:40.734Z,0.90
2023-12-22T17:31:08.567Z,1.25
2023-12-22T17:33:39.483Z,0.95
2023-12-22T17:36:07.576Z,1.08
2023-12-22T17:38:36.904Z,1.02
2023-12-22T17:41:04.821Z,0.70
2023-12-22T17:43:32.839Z,0.90
2023-12-22T17:46:00.592Z,0.95
2023-12-22T17:48:28.390Z,1.33
2023-12-22T17:50:56.178Z,0.70
2023-12-22T17:53:26.164Z,1.15
2023-12-22T17:55:56.006Z,1.00
2023-12-22T17:58:23.757Z,1.23
2023-12-22T18:00:51.551Z,1.25
2023-12-22T18:03:19.299Z,1.13
2023-12-22T18:05:47.085Z,0.75
2023-12-22T18:08:14.833Z,0.90
2023-12-22T18:10:42.664Z,1.20
2023-12-22T18:13:11.785Z,1.10
2023-12-22T18:15:39.818Z,0.90
2023-12-22T18:18:08.228Z,0.88
2023-12-22T18:20:36.256Z,0.60
2023-12-22T18:23:04.070Z,0.60
2023-12-22T18:25:31.907Z,1.15
2023-12-22T18:27:59.666Z,0.60
2023-12-22T18:30:29.225Z,0.80
2023-12-22T18:32:57.281Z,0.75
2023-12-22T18:35:25.019Z,0.70
2023-12-22T18:37:52.902Z,0.80
2023-12-22T18:40:20.726Z,1.05
2023-12-22T18:42:48.426Z,0.77
2023-12-22T18:45:16.167Z,0.70
2023-12-22T18:47:45.524Z,0.98
2023-12-22T18:50:13.431Z,1.00
2023-12-22T18:52:41.228Z,0.98
2023-12-22T18:55:09.266Z,0.50
2023-12-22T18:57:36.983Z,0.60
2023-12-22T19:00:05.155Z,0.75
2023-12-22T19:02:46.368Z,0.68
2023-12-22T19:05:22.119Z,0.73
2023-12-22T19:07:50.121Z,0.98
2023-12-22T19:10:18.072Z,0.80
2023-12-22T19:12:47.785Z,0.52
2023-12-22T19:15:15.644Z,0.93
2023-12-22T19:17:43.521Z,0.50
2023-12-22T19:20:11.814Z,0.60
2023-12-22T19:22:41.073Z,0.80
2023-12-22T19:25:09.278Z,0.50
2023-12-22T19:27:37.029Z,0.65
2023-12-22T19:30:05.874Z,0.75
2023-12-22T19:32:33.666Z,0.45
2023-12-22T19:35:01.417Z,0.70
2023-12-22T19:37:29.145Z,0.80
2023-12-22T19:39:58.203Z,0.60
2023-12-22T19:42:26.241Z,0.70
2023-12-22T19:44:54.166Z,0.88
2023-12-22T19:47:21.891Z,0.55
2023-12-22T19:49:49.837Z,0.70
2023-12-22T19:52:17.834Z,0.88
2023-12-22T19:54:45.798Z,0.75
2023-12-22T19:57:14.899Z,0.80
2023-12-22T19:59:42.590Z,0.90
2023-12-22T20:02:10.302Z,0.88
2023-12-22T20:04:38.117Z,0.82
2023-12-22T20:07:05.088Z,0.47
2023-12-22T20:09:32.792Z,0.70
2023-12-22T20:12:00.671Z,1.08
2023-12-22T20:14:29.877Z,0.73
2023-12-22T20:16:58.493Z,0.60
2023-12-22T20:19:26.282Z,0.98
2023-12-22T20:21:54.009Z,0.60
2023-12-22T20:24:21.791Z,0.40
2023-12-22T20:26:49.533Z,0.70
2023-12-22T20:29:17.285Z,0.65
2023-12-22T20:31:46.518Z,0.90
2023-12-22T20:34:14.277Z,0.90
2023-12-22T20:36:44.895Z,0.47
2023-12-22T20:39:12.758Z,0.65
2023-12-22T20:41:41.445Z,0.50
2023-12-22T20:44:09.285Z,0.88
2023-12-22T20:46:37.126Z,0.95
2023-12-22T20:49:06.270Z,0.88
2023-12-22T20:51:34.048Z,0.63
2023-12-22T20:54:01.756Z,0.98
2023-12-22T20:56:29.436Z,0.50
2023-12-22T20:58:59.800Z,0.80
2023-12-22T21:01:27.732Z,0.70
2023-12-22T21:03:55.501Z,0.75
2023-12-22T21:06:24.605Z,0.50
2023-12-22T21:08:52.451Z,0.68
2023-12-22T21:11:23.850Z,0.80
2023-12-22T21:13:51.985Z,0.90
2023-12-22T21:16:19.709Z,0.60
2023-12-22T21:18:47.832Z,0.93
2023-12-22T21:21:15.899Z,0.73
2023-12-22T21:23:45.521Z,0.63
2023-12-22T21:26:19.592Z,0.57
2023-12-22T21:28:47.353Z,0.80
2023-12-22T21:31:15.073Z,0.77
2023-12-22T21:33:42.898Z,0.80
2023-12-22T21:36:20.208Z,0.80
2023-12-22T21:38:49.336Z,0.60
2023-12-22T21:41:18.252Z,0.73
2023-12-22T21:43:46.031Z,0.55
2023-12-22T21:46:13.755Z,0.80
2023-12-22T21:48:41.617Z,0.60
2023-12-22T21:51:10.410Z,1.00
2023-12-22T21:53:39.835Z,0.82
2023-12-22T21:56:09.175Z,0.77
2023-12-22T21:58:36.920Z,0.63
2023-12-22T22:01:04.973Z,0.82
2023-12-22T22:03:33.117Z,0.70
2023-12-22T22:06:00.914Z,0.80
2023-12-22T22:08:28.669Z,0.63
2023-12-22T22:10:56.388Z,0.80
2023-12-22T22:13:25.655Z,0.88
2023-12-22T22:15:53.712Z,0.80
2023-12-22T22:18:21.583Z,0.80
2023-12-22T22:20:50.989Z,0.63
2023-12-22T22:23:19.154Z,0.50
2023-12-22T22:25:46.934Z,0.95
2023-12-22T22:28:14.678Z,1.10
2023-12-22T22:30:44.633Z,0.63
2023-12-22T22:33:13.951Z,0.93
2023-12-22T22:35:41.753Z,0.80
2023-12-22T22:38:09.467Z,0.90
2023-12-22T22:40:37.275Z,0.73
2023-12-22T22:43:05.207Z,0.80
2023-12-22T22:45:32.899Z,0.80
2023-12-22T22:48:02.946Z,0.73
2023-12-22T22:50:30.679Z,0.70
2023-12-22T22:52:58.463Z,0.60
2023-12-22T22:55:26.263Z,0.50
2023-12-22T22:57:53.951Z,0.73
2023-12-22T23:00:28.859Z,0.98
2023-12-22T23:02:56.716Z,0.95
2023-12-22T23:05:25.863Z,0.90
2023-12-22T23:07:53.816Z,0.70
2023-12-22T23:10:21.836Z,0.60
2023-12-22T23:12:49.565Z,0.52
2023-12-22T23:15:17.335Z,0.90
2023-12-22T23:17:45.069Z,0.93
2023-12-22T23:20:13.121Z,0.80
2023-12-22T23:22:43.996Z,0.60
2023-12-22T23:25:12.628Z,0.65
2023-12-22T23:27:40.427Z,0.75
2023-12-22T23:30:11.608Z,0.60
2023-12-22T23:32:39.299Z,1.00
2023-12-22T23:35:07.614Z,0.70
2023-12-22T23:37:35.376Z,0.85
2023-12-22T23:40:05.769Z,0.60
2023-12-22T23:42:33.542Z,0.90
2023-12-22T23:45:01.289Z,0.82
2023-12-22T23:47:29.961Z,0.80
2023-12-22T23:49:57.763Z,0.77
2023-12-22T23:52:25.464Z,0.73
2023-12-22T23:54:53.154Z,0.88
2023-12-22T23:57:23.034Z,0.65
2023-12-22T23:59:50.940Z,0.73
